OMA204 OOMS-OTHH
Flight info
| Callsign | OMA204 |
|---|---|
| Flight time | 1h 11m |
| Altitude | 32000 |
| Route | MCT N718 ITRAX P899 TOVOX |
| Aircraft | B738/M-SDE2E3FGHIRWXY/LB1 |
Departure
| Time | 2026-05-05 01:18 |
|---|---|
| Airport | Muscat International Airport (OOMS) |
Arrival
| Time | 2026-05-05 02:30 |
|---|---|
| Airport | Hamad International Airport (OTHH) |
| Time | Latitude | Longitude | Altitude | Speed | Heading |
|---|---|---|---|---|---|
| 2026-05-05 01:06 | 23.59890 | 58.28602 | 37 ft | 0 kts | 84° |
| 2026-05-05 01:08 | 23.59889 | 58.28596 | 37 ft | 4 kts | 84° |
| 2026-05-05 01:08 | 23.59887 | 58.28567 | 37 ft | 4 kts | 84° |
| 2026-05-05 01:08 | 23.59886 | 58.28548 | 37 ft | 4 kts | 96° |
| 2026-05-05 01:09 | 23.59893 | 58.28523 | 37 ft | 4 kts | 144° |
| 2026-05-05 01:09 | 23.59906 | 58.28519 | 37 ft | 0 kts | 212° |
| 2026-05-05 01:11 | 23.59894 | 58.28511 | 37 ft | 5 kts | 212° |
| 2026-05-05 01:11 | 23.59845 | 58.28498 | 37 ft | 8 kts | 177° |
| 2026-05-05 01:12 | 23.59789 | 58.28502 | 37 ft | 8 kts | 176° |
| 2026-05-05 01:12 | 23.59733 | 58.28508 | 37 ft | 9 kts | 174° |
| 2026-05-05 01:12 | 23.59667 | 58.28515 | 37 ft | 10 kts | 175° |
| 2026-05-05 01:12 | 23.59618 | 58.28556 | 37 ft | 10 kts | 102° |
| 2026-05-05 01:13 | 23.59622 | 58.28646 | 37 ft | 13 kts | 85° |
| 2026-05-05 01:13 | 23.59630 | 58.28746 | 37 ft | 13 kts | 85° |
| 2026-05-05 01:13 | 23.59639 | 58.28849 | 37 ft | 15 kts | 85° |
| 2026-05-05 01:13 | 23.59649 | 58.28971 | 37 ft | 17 kts | 85° |
| 2026-05-05 01:14 | 23.59659 | 58.29097 | 36 ft | 17 kts | 85° |
| 2026-05-05 01:14 | 23.59669 | 58.29226 | 36 ft | 17 kts | 84° |
| 2026-05-05 01:14 | 23.59680 | 58.29351 | 36 ft | 16 kts | 85° |
| 2026-05-05 01:14 | 23.59690 | 58.29487 | 36 ft | 20 kts | 85° |
| 2026-05-05 01:15 | 23.59702 | 58.29642 | 36 ft | 20 kts | 85° |
| 2026-05-05 01:15 | 23.59715 | 58.29794 | 35 ft | 20 kts | 85° |
| 2026-05-05 01:15 | 23.59726 | 58.29943 | 35 ft | 19 kts | 85° |
| 2026-05-05 01:15 | 23.59739 | 58.30090 | 35 ft | 20 kts | 84° |
| 2026-05-05 01:16 | 23.59751 | 58.30237 | 35 ft | 19 kts | 85° |
| 2026-05-05 01:16 | 23.59741 | 58.30344 | 35 ft | 12 kts | 134° |
| 2026-05-05 01:16 | 23.59672 | 58.30323 | 34 ft | 12 kts | 246° |
| 2026-05-05 01:16 | 23.59657 | 58.30230 | 35 ft | 13 kts | 256° |
| 2026-05-05 01:17 | 23.59598 | 58.30182 | 35 ft | 10 kts | 186° |
| 2026-05-05 01:17 | 23.59528 | 58.30181 | 34 ft | 11 kts | 180° |
| 2026-05-05 01:17 | 23.59461 | 58.30158 | 34 ft | 10 kts | 228° |
| 2026-05-05 01:17 | 23.59441 | 58.30078 | 34 ft | 20 kts | 265° |
| 2026-05-05 01:18 | 23.59406 | 58.29654 | 36 ft | 91 kts | 265° |
| 2026-05-05 01:18 | 23.59332 | 58.28756 | 38 ft | 148 kts | 264° |
| 2026-05-05 01:18 | 23.59233 | 58.27499 | 244 ft | 177 kts | 265° |
| 2026-05-05 01:18 | 23.59117 | 58.26147 | 974 ft | 175 kts | 264° |
| 2026-05-05 01:19 | 23.59073 | 58.24880 | 1915 ft | 163 kts | 269° |
| 2026-05-05 01:19 | 23.59073 | 58.23588 | 2313 ft | 184 kts | 269° |
| 2026-05-05 01:19 | 23.59075 | 58.22101 | 2574 ft | 208 kts | 269° |
| 2026-05-05 01:19 | 23.59078 | 58.20436 | 2750 ft | 230 kts | 269° |
| 2026-05-05 01:20 | 23.59079 | 58.18629 | 2995 ft | 250 kts | 269° |
| 2026-05-05 01:20 | 23.59079 | 58.16674 | 3449 ft | 263 kts | 269° |
| 2026-05-05 01:20 | 23.59079 | 58.14659 | 4135 ft | 267 kts | 269° |
| 2026-05-05 01:20 | 23.59077 | 58.12625 | 4854 ft | 270 kts | 269° |
| 2026-05-05 01:21 | 23.59075 | 58.10569 | 5548 ft | 273 kts | 269° |
| 2026-05-05 01:21 | 23.59072 | 58.08481 | 6242 ft | 277 kts | 269° |
| 2026-05-05 01:21 | 23.59068 | 58.06372 | 6935 ft | 280 kts | 269° |
| 2026-05-05 01:21 | 23.59063 | 58.04237 | 7624 ft | 283 kts | 269° |
| 2026-05-05 01:22 | 23.59058 | 58.02077 | 8311 ft | 287 kts | 269° |
| 2026-05-05 01:22 | 23.59053 | 57.99891 | 8993 ft | 290 kts | 269° |
| 2026-05-05 01:22 | 23.59047 | 57.97677 | 9670 ft | 294 kts | 269° |
| 2026-05-05 01:22 | 23.59041 | 57.95433 | 10301 ft | 300 kts | 269° |
| 2026-05-05 01:23 | 23.59034 | 57.93086 | 10490 ft | 321 kts | 269° |
| 2026-05-05 01:23 | 23.59026 | 57.90578 | 10647 ft | 340 kts | 269° |
| 2026-05-05 01:23 | 23.59018 | 57.87942 | 10920 ft | 353 kts | 269° |
| 2026-05-05 01:23 | 23.59009 | 57.85251 | 11399 ft | 358 kts | 269° |
| 2026-05-05 01:24 | 23.58999 | 57.82526 | 11975 ft | 361 kts | 269° |
| 2026-05-05 01:24 | 23.58996 | 57.79776 | 12504 ft | 364 kts | 270° |
| 2026-05-05 01:24 | 23.58998 | 57.77008 | 13032 ft | 367 kts | 270° |
| 2026-05-05 01:24 | 23.59000 | 57.74206 | 13536 ft | 371 kts | 270° |
| 2026-05-05 01:25 | 23.59002 | 57.71384 | 14030 ft | 374 kts | 270° |
| 2026-05-05 01:25 | 23.59003 | 57.68533 | 14521 ft | 378 kts | 270° |
| 2026-05-05 01:25 | 23.59004 | 57.65657 | 15007 ft | 381 kts | 270° |
| 2026-05-05 01:25 | 23.59003 | 57.62798 | 15469 ft | 384 kts | 270° |
| 2026-05-05 01:26 | 23.59002 | 57.59841 | 15918 ft | 387 kts | 270° |
| 2026-05-05 01:26 | 23.59000 | 57.56936 | 16337 ft | 390 kts | 270° |
| 2026-05-05 01:26 | 23.58997 | 57.53970 | 16738 ft | 393 kts | 270° |
| 2026-05-05 01:26 | 23.58994 | 57.50962 | 17002 ft | 399 kts | 270° |
| 2026-05-05 01:27 | 23.58990 | 57.47931 | 17410 ft | 401 kts | 269° |
| 2026-05-05 01:27 | 23.58986 | 57.44892 | 17844 ft | 401 kts | 269° |
| 2026-05-05 01:27 | 23.58981 | 57.41851 | 18228 ft | 403 kts | 269° |
| 2026-05-05 01:27 | 23.58975 | 57.38785 | 18468 ft | 408 kts | 269° |
| 2026-05-05 01:28 | 23.58969 | 57.35678 | 18768 ft | 410 kts | 269° |
| 2026-05-05 01:28 | 23.58962 | 57.32580 | 19199 ft | 409 kts | 269° |
| 2026-05-05 01:28 | 23.58954 | 57.29474 | 19491 ft | 411 kts | 269° |
| 2026-05-05 01:28 | 23.58946 | 57.26346 | 19725 ft | 415 kts | 269° |
| 2026-05-05 01:29 | 23.58937 | 57.23185 | 19955 ft | 418 kts | 269° |
| 2026-05-05 01:29 | 23.58928 | 57.20009 | 20210 ft | 419 kts | 269° |
| 2026-05-05 01:29 | 23.58918 | 57.16831 | 20517 ft | 420 kts | 269° |
| 2026-05-05 01:29 | 23.58993 | 57.13648 | 20774 ft | 421 kts | 276° |
| 2026-05-05 01:30 | 23.59527 | 57.10499 | 21019 ft | 423 kts | 285° |
| 2026-05-05 01:30 | 23.60528 | 57.07478 | 21235 ft | 425 kts | 293° |
| 2026-05-05 01:30 | 23.61733 | 57.04522 | 21427 ft | 427 kts | 294° |
| 2026-05-05 01:30 | 23.62968 | 57.01563 | 21554 ft | 431 kts | 294° |
| 2026-05-05 01:31 | 23.64212 | 56.98579 | 21734 ft | 433 kts | 294° |
| 2026-05-05 01:31 | 23.65451 | 56.95587 | 21993 ft | 432 kts | 294° |
| 2026-05-05 01:31 | 23.66677 | 56.92597 | 22210 ft | 433 kts | 294° |
| 2026-05-05 01:31 | 23.67899 | 56.89594 | 22391 ft | 434 kts | 293° |
| 2026-05-05 01:32 | 23.69122 | 56.86576 | 22523 ft | 436 kts | 293° |
| 2026-05-05 01:32 | 23.70350 | 56.83537 | 22598 ft | 440 kts | 293° |
| 2026-05-05 01:32 | 23.71584 | 56.80478 | 22728 ft | 441 kts | 293° |
| 2026-05-05 01:32 | 23.72818 | 56.77414 | 22928 ft | 441 kts | 293° |
| 2026-05-05 01:33 | 23.74052 | 56.74352 | 23086 ft | 441 kts | 293° |
| 2026-05-05 01:33 | 23.75287 | 56.71283 | 23207 ft | 443 kts | 293° |
| 2026-05-05 01:33 | 23.76529 | 56.68197 | 23309 ft | 444 kts | 293° |
| 2026-05-05 01:33 | 23.77760 | 56.65137 | 23344 ft | 447 kts | 293° |
| 2026-05-05 01:34 | 23.79026 | 56.61985 | 23487 ft | 448 kts | 293° |
| 2026-05-05 01:34 | 23.80258 | 56.58918 | 23639 ft | 447 kts | 293° |
| 2026-05-05 01:34 | 23.81508 | 56.55804 | 23719 ft | 449 kts | 293° |
| 2026-05-05 01:34 | 23.82763 | 56.52675 | 23810 ft | 450 kts | 293° |
| 2026-05-05 01:35 | 23.84017 | 56.49547 | 23962 ft | 449 kts | 293° |
| 2026-05-05 01:35 | 23.85269 | 56.46420 | 24071 ft | 450 kts | 293° |
| 2026-05-05 01:35 | 23.86525 | 56.43282 | 24129 ft | 452 kts | 293° |
| 2026-05-05 01:35 | 23.87783 | 56.40137 | 24234 ft | 452 kts | 293° |
| 2026-05-05 01:36 | 23.89040 | 56.36991 | 24340 ft | 452 kts | 293° |
| 2026-05-05 01:36 | 23.90297 | 56.33843 | 24421 ft | 453 kts | 293° |
| 2026-05-05 01:36 | 23.91559 | 56.30680 | 24487 ft | 454 kts | 293° |
| 2026-05-05 01:36 | 23.92819 | 56.27522 | 24542 ft | 455 kts | 293° |
| 2026-05-05 01:37 | 23.94088 | 56.24352 | 24628 ft | 455 kts | 294° |
| 2026-05-05 01:37 | 23.95571 | 56.21300 | 24701 ft | 456 kts | 302° |
| 2026-05-05 01:37 | 23.97336 | 56.18410 | 24726 ft | 457 kts | 304° |
| 2026-05-05 01:37 | 23.99149 | 56.15557 | 24805 ft | 457 kts | 304° |
| 2026-05-05 01:38 | 24.00971 | 56.12700 | 24901 ft | 457 kts | 304° |
| 2026-05-05 01:38 | 24.02777 | 56.09839 | 24968 ft | 457 kts | 304° |
| 2026-05-05 01:38 | 24.04570 | 56.06965 | 25015 ft | 458 kts | 304° |
| 2026-05-05 01:38 | 24.06358 | 56.04072 | 25068 ft | 459 kts | 303° |
| 2026-05-05 01:39 | 24.08139 | 56.01176 | 25116 ft | 459 kts | 303° |
| 2026-05-05 01:39 | 24.09921 | 55.98271 | 25153 ft | 460 kts | 303° |
| 2026-05-05 01:39 | 24.11703 | 55.95365 | 25173 ft | 461 kts | 303° |
| 2026-05-05 01:39 | 24.13490 | 55.92451 | 25252 ft | 460 kts | 303° |
| 2026-05-05 01:40 | 24.15276 | 55.89537 | 25319 ft | 460 kts | 303° |
| 2026-05-05 01:40 | 24.17062 | 55.86624 | 25357 ft | 461 kts | 303° |
| 2026-05-05 01:40 | 24.18847 | 55.83710 | 25390 ft | 461 kts | 303° |
| 2026-05-05 01:40 | 24.20569 | 55.80745 | 25415 ft | 462 kts | 298° |
| 2026-05-05 01:41 | 24.21892 | 55.77591 | 25441 ft | 462 kts | 289° |
| 2026-05-05 01:41 | 24.22789 | 55.74170 | 25479 ft | 462 kts | 284° |
| 2026-05-05 01:41 | 24.23568 | 55.70752 | 25486 ft | 463 kts | 283° |
| 2026-05-05 01:41 | 24.24356 | 55.67336 | 25534 ft | 462 kts | 284° |
| 2026-05-05 01:42 | 24.25173 | 55.63935 | 25599 ft | 462 kts | 284° |
| 2026-05-05 01:42 | 24.26006 | 55.60534 | 24755 ft | 454 kts | 284° |
| 2026-05-05 01:42 | 24.26720 | 55.57256 | 25842 ft | 434 kts | 281° |
| 2026-05-05 01:42 | 24.27330 | 55.54075 | 26748 ft | 421 kts | 281° |
| 2026-05-05 01:43 | 24.27909 | 55.50927 | 27152 ft | 422 kts | 280° |
| 2026-05-05 01:43 | 24.28494 | 55.47754 | 27343 ft | 428 kts | 281° |
| 2026-05-05 01:43 | 24.29098 | 55.44544 | 27597 ft | 431 kts | 281° |
| 2026-05-05 01:43 | 24.29705 | 55.41370 | 27905 ft | 432 kts | 281° |
| 2026-05-05 01:44 | 24.30326 | 55.38145 | 28248 ft | 432 kts | 281° |
| 2026-05-05 01:44 | 24.30897 | 55.34909 | 28555 ft | 433 kts | 278° |
| 2026-05-05 01:44 | 24.31284 | 55.31631 | 28851 ft | 434 kts | 275° |
| 2026-05-05 01:44 | 24.31594 | 55.28339 | 29240 ft | 433 kts | 275° |
| 2026-05-05 01:45 | 24.31887 | 55.25067 | 29712 ft | 430 kts | 275° |
| 2026-05-05 01:45 | 24.32190 | 55.21818 | 30136 ft | 427 kts | 275° |
| 2026-05-05 01:45 | 24.32506 | 55.18582 | 30500 ft | 426 kts | 275° |
| 2026-05-05 01:45 | 24.32831 | 55.15356 | 30814 ft | 426 kts | 276° |
| 2026-05-05 01:46 | 24.33160 | 55.12132 | 31162 ft | 425 kts | 276° |
| 2026-05-05 01:46 | 24.33487 | 55.08921 | 31535 ft | 423 kts | 276° |
| 2026-05-05 01:46 | 24.33811 | 55.05719 | 31764 ft | 424 kts | 275° |
| 2026-05-05 01:46 | 24.34134 | 55.02487 | 31761 ft | 427 kts | 275° |
| 2026-05-05 01:47 | 24.34776 | 54.96027 | 31758 ft | 423 kts | 275° |
| 2026-05-05 01:47 | 24.35409 | 54.89639 | 31761 ft | 421 kts | 275° |
| 2026-05-05 01:48 | 24.36039 | 54.83249 | 31761 ft | 421 kts | 275° |
| 2026-05-05 01:48 | 24.36667 | 54.76855 | 31751 ft | 421 kts | 275° |
| 2026-05-05 01:49 | 24.37293 | 54.70467 | 31746 ft | 421 kts | 275° |
| 2026-05-05 01:49 | 24.37915 | 54.64077 | 31748 ft | 421 kts | 275° |
| 2026-05-05 01:50 | 24.38535 | 54.57694 | 31748 ft | 421 kts | 275° |
| 2026-05-05 01:50 | 24.39154 | 54.51352 | 31748 ft | 421 kts | 276° |
| 2026-05-05 01:51 | 24.40379 | 54.45030 | 31748 ft | 422 kts | 283° |
| 2026-05-05 01:51 | 24.41835 | 54.38798 | 31747 ft | 421 kts | 283° |
| 2026-05-05 01:52 | 24.43264 | 54.32562 | 31751 ft | 421 kts | 282° |
| 2026-05-05 01:52 | 24.44660 | 54.26323 | 31762 ft | 421 kts | 282° |
| 2026-05-05 01:53 | 24.46045 | 54.20075 | 31748 ft | 421 kts | 282° |
| 2026-05-05 01:53 | 24.47416 | 54.13877 | 31751 ft | 421 kts | 282° |
| 2026-05-05 01:54 | 24.48794 | 54.07637 | 31751 ft | 420 kts | 282° |
| 2026-05-05 01:54 | 24.50169 | 54.01396 | 31753 ft | 420 kts | 282° |
| 2026-05-05 01:55 | 24.51541 | 53.95161 | 31754 ft | 420 kts | 282° |
| 2026-05-05 01:55 | 24.52941 | 53.88938 | 31753 ft | 420 kts | 283° |
| 2026-05-05 01:56 | 24.54501 | 53.82753 | 31754 ft | 420 kts | 284° |
| 2026-05-05 01:56 | 24.55820 | 53.77615 | 31754 ft | 420 kts | 284° |
| 2026-05-05 01:57 | 24.57388 | 53.71433 | 31759 ft | 420 kts | 283° |
| 2026-05-05 01:57 | 24.58941 | 53.65246 | 31752 ft | 420 kts | 283° |
| 2026-05-05 01:58 | 24.60485 | 53.59063 | 31753 ft | 420 kts | 283° |
| 2026-05-05 01:58 | 24.62026 | 53.52875 | 31753 ft | 419 kts | 283° |
| 2026-05-05 01:59 | 24.63562 | 53.46702 | 31753 ft | 419 kts | 283° |
| 2026-05-05 01:59 | 24.65096 | 53.40521 | 31755 ft | 419 kts | 283° |
| 2026-05-05 02:00 | 24.66627 | 53.34344 | 31757 ft | 419 kts | 283° |
| 2026-05-05 02:00 | 24.68156 | 53.28161 | 31759 ft | 419 kts | 283° |
| 2026-05-05 02:01 | 24.69682 | 53.21982 | 31313 ft | 416 kts | 283° |
| 2026-05-05 02:01 | 24.70433 | 53.18937 | 30838 ft | 411 kts | 283° |
| 2026-05-05 02:01 | 24.71179 | 53.15912 | 30397 ft | 407 kts | 283° |
| 2026-05-05 02:02 | 24.71913 | 53.12927 | 29941 ft | 403 kts | 283° |
| 2026-05-05 02:02 | 24.72643 | 53.09960 | 29395 ft | 401 kts | 283° |
| 2026-05-05 02:02 | 24.73366 | 53.07017 | 28877 ft | 397 kts | 283° |
| 2026-05-05 02:02 | 24.74082 | 53.04096 | 28388 ft | 393 kts | 283° |
| 2026-05-05 02:03 | 24.74791 | 53.01206 | 27906 ft | 389 kts | 283° |
| 2026-05-05 02:03 | 24.75492 | 52.98343 | 27433 ft | 386 kts | 283° |
| 2026-05-05 02:03 | 24.76187 | 52.95502 | 26970 ft | 383 kts | 283° |
| 2026-05-05 02:03 | 24.76877 | 52.92679 | 26508 ft | 381 kts | 283° |
| 2026-05-05 02:04 | 24.77562 | 52.89874 | 26049 ft | 378 kts | 283° |
| 2026-05-05 02:04 | 24.78244 | 52.87081 | 25567 ft | 377 kts | 283° |
| 2026-05-05 02:04 | 24.78922 | 52.84298 | 25104 ft | 376 kts | 283° |
| 2026-05-05 02:04 | 24.79598 | 52.81524 | 24639 ft | 375 kts | 283° |
| 2026-05-05 02:05 | 24.80271 | 52.78757 | 24185 ft | 374 kts | 283° |
| 2026-05-05 02:05 | 24.80943 | 52.75993 | 23720 ft | 374 kts | 283° |
| 2026-05-05 02:05 | 24.81615 | 52.73229 | 23236 ft | 373 kts | 284° |
| 2026-05-05 02:05 | 24.82284 | 52.70472 | 22714 ft | 372 kts | 283° |
| 2026-05-05 02:06 | 24.82949 | 52.67733 | 22245 ft | 369 kts | 284° |
| 2026-05-05 02:06 | 24.83610 | 52.65008 | 21788 ft | 367 kts | 283° |
| 2026-05-05 02:06 | 24.84265 | 52.62303 | 21341 ft | 364 kts | 283° |
| 2026-05-05 02:06 | 24.84916 | 52.59617 | 20883 ft | 362 kts | 284° |
| 2026-05-05 02:07 | 24.85567 | 52.56944 | 20408 ft | 361 kts | 284° |
| 2026-05-05 02:07 | 24.86217 | 52.54283 | 19983 ft | 358 kts | 284° |
| 2026-05-05 02:07 | 24.86863 | 52.51641 | 19559 ft | 356 kts | 284° |
| 2026-05-05 02:07 | 24.87494 | 52.49052 | 19138 ft | 354 kts | 284° |
| 2026-05-05 02:08 | 24.88130 | 52.46440 | 18715 ft | 352 kts | 284° |
| 2026-05-05 02:08 | 24.88763 | 52.43840 | 18292 ft | 351 kts | 284° |
| 2026-05-05 02:08 | 24.89386 | 52.41245 | 17821 ft | 349 kts | 282° |
| 2026-05-05 02:08 | 24.89665 | 52.38600 | 17322 ft | 348 kts | 270° |
| 2026-05-05 02:09 | 24.89654 | 52.35948 | 16856 ft | 346 kts | 269° |
| 2026-05-05 02:09 | 24.89641 | 52.33302 | 16377 ft | 345 kts | 270° |
| 2026-05-05 02:09 | 24.89658 | 52.30665 | 15908 ft | 343 kts | 271° |
| 2026-05-05 02:09 | 24.89690 | 52.28041 | 15446 ft | 342 kts | 272° |
| 2026-05-05 02:10 | 24.89700 | 52.25432 | 15110 ft | 338 kts | 269° |
| 2026-05-05 02:10 | 24.89540 | 52.22863 | 14688 ft | 336 kts | 266° |
| 2026-05-05 02:10 | 24.89318 | 52.20302 | 14258 ft | 335 kts | 266° |
| 2026-05-05 02:10 | 24.89104 | 52.17747 | 13815 ft | 335 kts | 267° |
| 2026-05-05 02:11 | 24.88906 | 52.15193 | 13320 ft | 335 kts | 268° |
| 2026-05-05 02:11 | 24.88716 | 52.12640 | 12838 ft | 334 kts | 269° |
| 2026-05-05 02:11 | 24.88851 | 52.10124 | 12346 ft | 328 kts | 288° |
| 2026-05-05 02:11 | 24.89834 | 52.07906 | 11993 ft | 319 kts | 309° |
| 2026-05-05 02:12 | 24.91336 | 52.06193 | 11872 ft | 306 kts | 323° |
| 2026-05-05 02:12 | 24.95032 | 52.04241 | 11605 ft | 286 kts | 339° |
| 2026-05-05 02:12 | 24.96874 | 52.03474 | 11494 ft | 281 kts | 339° |
| 2026-05-05 02:13 | 24.98690 | 52.02710 | 11383 ft | 278 kts | 338° |
| 2026-05-05 02:13 | 25.00486 | 52.01941 | 11277 ft | 276 kts | 338° |
| 2026-05-05 02:13 | 25.02268 | 52.01170 | 11172 ft | 275 kts | 338° |
| 2026-05-05 02:13 | 25.04059 | 52.00391 | 11070 ft | 279 kts | 338° |
| 2026-05-05 02:14 | 25.05879 | 51.99598 | 10882 ft | 283 kts | 338° |
| 2026-05-05 02:14 | 25.07713 | 51.98798 | 10659 ft | 283 kts | 338° |
| 2026-05-05 02:14 | 25.09530 | 51.98005 | 10428 ft | 279 kts | 338° |
| 2026-05-05 02:14 | 25.11320 | 51.97224 | 10194 ft | 274 kts | 338° |
| 2026-05-05 02:15 | 25.13079 | 51.96456 | 9968 ft | 269 kts | 338° |
| 2026-05-05 02:15 | 25.14805 | 51.95702 | 9740 ft | 265 kts | 338° |
| 2026-05-05 02:15 | 25.16502 | 51.94960 | 9530 ft | 260 kts | 339° |
| 2026-05-05 02:15 | 25.18172 | 51.94230 | 9292 ft | 256 kts | 339° |
| 2026-05-05 02:16 | 25.19825 | 51.93508 | 9062 ft | 255 kts | 339° |
| 2026-05-05 02:16 | 25.21472 | 51.92788 | 8862 ft | 255 kts | 339° |
| 2026-05-05 02:16 | 25.23120 | 51.92067 | 8652 ft | 255 kts | 339° |
| 2026-05-05 02:16 | 25.24767 | 51.91346 | 8442 ft | 254 kts | 339° |
| 2026-05-05 02:17 | 25.26396 | 51.90646 | 8233 ft | 255 kts | 340° |
| 2026-05-05 02:17 | 25.28049 | 51.89943 | 8019 ft | 255 kts | 339° |
| 2026-05-05 02:17 | 25.29704 | 51.89240 | 7817 ft | 255 kts | 339° |
| 2026-05-05 02:17 | 25.31361 | 51.88534 | 7599 ft | 255 kts | 339° |
| 2026-05-05 02:18 | 25.33021 | 51.87823 | 7388 ft | 256 kts | 337° |
| 2026-05-05 02:18 | 25.34468 | 51.86689 | 7158 ft | 260 kts | 312° |
| 2026-05-05 02:18 | 25.35308 | 51.84923 | 7047 ft | 264 kts | 289° |
| 2026-05-05 02:18 | 25.35479 | 51.82865 | 7012 ft | 276 kts | 267° |
| 2026-05-05 02:19 | 25.34940 | 51.80809 | 7000 ft | 279 kts | 253° |
| 2026-05-05 02:19 | 25.34236 | 51.78809 | 6993 ft | 279 kts | 253° |
| 2026-05-05 02:19 | 25.33527 | 51.76808 | 6993 ft | 280 kts | 253° |
| 2026-05-05 02:19 | 25.32825 | 51.74799 | 6996 ft | 280 kts | 253° |
| 2026-05-05 02:20 | 25.31877 | 51.72906 | 6981 ft | 288 kts | 230° |
| 2026-05-05 02:20 | 25.30201 | 51.71674 | 6977 ft | 296 kts | 201° |
| 2026-05-05 02:20 | 25.28137 | 51.71459 | 6686 ft | 305 kts | 168° |
| 2026-05-05 02:20 | 25.26143 | 51.72205 | 6434 ft | 302 kts | 156° |
| 2026-05-05 02:21 | 25.24200 | 51.73093 | 6133 ft | 301 kts | 156° |
| 2026-05-05 02:21 | 25.22270 | 51.73982 | 5833 ft | 300 kts | 156° |
| 2026-05-05 02:21 | 25.20347 | 51.74849 | 5549 ft | 298 kts | 156° |
| 2026-05-05 02:21 | 25.18432 | 51.75700 | 5268 ft | 296 kts | 156° |
| 2026-05-05 02:22 | 25.16539 | 51.76534 | 5099 ft | 286 kts | 156° |
| 2026-05-05 02:22 | 25.14713 | 51.77334 | 4824 ft | 280 kts | 156° |
| 2026-05-05 02:22 | 25.12912 | 51.78124 | 4436 ft | 278 kts | 156° |
| 2026-05-05 02:22 | 25.11114 | 51.78913 | 4072 ft | 279 kts | 156° |
| 2026-05-05 02:23 | 25.09329 | 51.79661 | 4001 ft | 270 kts | 163° |
| 2026-05-05 02:23 | 25.07503 | 51.79733 | 3928 ft | 259 kts | 194° |
| 2026-05-05 02:23 | 25.05937 | 51.78876 | 3661 ft | 250 kts | 224° |
| 2026-05-05 02:23 | 25.05022 | 51.77334 | 3544 ft | 237 kts | 256° |
| 2026-05-05 02:24 | 25.04888 | 51.75566 | 3506 ft | 231 kts | 281° |
| 2026-05-05 02:24 | 25.05410 | 51.73906 | 3505 ft | 229 kts | 303° |
| 2026-05-05 02:24 | 25.06248 | 51.72398 | 3505 ft | 232 kts | 305° |
| 2026-05-05 02:24 | 25.07080 | 51.70921 | 3490 ft | 226 kts | 305° |
| 2026-05-05 02:25 | 25.07887 | 51.69480 | 3485 ft | 216 kts | 305° |
| 2026-05-05 02:25 | 25.08735 | 51.68184 | 3467 ft | 200 kts | 323° |
| 2026-05-05 02:25 | 25.09970 | 51.67473 | 3124 ft | 211 kts | 340° |
| 2026-05-05 02:25 | 25.11314 | 51.66858 | 2832 ft | 207 kts | 339° |
| 2026-05-05 02:26 | 25.12627 | 51.66266 | 2565 ft | 201 kts | 340° |
| 2026-05-05 02:26 | 25.13905 | 51.65697 | 2315 ft | 195 kts | 340° |
| 2026-05-05 02:26 | 25.15129 | 51.65155 | 2070 ft | 184 kts | 340° |
| 2026-05-05 02:26 | 25.16272 | 51.64648 | 1863 ft | 171 kts | 341° |
| 2026-05-05 02:27 | 25.17325 | 51.64181 | 1681 ft | 154 kts | 342° |
| 2026-05-05 02:27 | 25.18286 | 51.63755 | 1471 ft | 145 kts | 342° |
| 2026-05-05 02:27 | 25.19216 | 51.63345 | 1285 ft | 144 kts | 341° |
| 2026-05-05 02:27 | 25.20158 | 51.62928 | 1109 ft | 147 kts | 340° |
| 2026-05-05 02:28 | 25.21115 | 51.62503 | 929 ft | 149 kts | 340° |
| 2026-05-05 02:28 | 25.22077 | 51.62077 | 758 ft | 150 kts | 339° |
| 2026-05-05 02:28 | 25.23042 | 51.61637 | 609 ft | 150 kts | 337° |
| 2026-05-05 02:28 | 25.24017 | 51.61205 | 408 ft | 152 kts | 338° |
| 2026-05-05 02:29 | 25.25006 | 51.60772 | 180 ft | 151 kts | 337° |
| 2026-05-05 02:29 | 25.25967 | 51.60351 | 24 ft | 142 kts | 337° |
| 2026-05-05 02:29 | 25.26769 | 51.59997 | 19 ft | 103 kts | 339° |
| 2026-05-05 02:29 | 25.27305 | 51.59765 | 19 ft | 71 kts | 338° |
| 2026-05-05 02:30 | 25.27672 | 51.59603 | 17 ft | 48 kts | 339° |
| 2026-05-05 02:30 | 25.27958 | 51.59514 | 17 ft | 39 kts | 359° |
| 2026-05-05 02:30 | 25.28094 | 51.59536 | 19 ft | 14 kts | 29° |
| 2026-05-05 02:30 | 25.28093 | 51.59618 | 19 ft | 13 kts | 146° |
| 2026-05-05 02:31 | 25.27992 | 51.59666 | 19 ft | 19 kts | 158° |
| 2026-05-05 02:31 | 25.27867 | 51.59721 | 19 ft | 19 kts | 159° |
| 2026-05-05 02:31 | 25.27741 | 51.59775 | 19 ft | 21 kts | 158° |
| 2026-05-05 02:31 | 25.27603 | 51.59836 | 19 ft | 21 kts | 158° |
| 2026-05-05 02:32 | 25.27467 | 51.59896 | 19 ft | 21 kts | 158° |
| 2026-05-05 02:32 | 25.27321 | 51.59961 | 19 ft | 24 kts | 158° |
| 2026-05-05 02:32 | 25.27172 | 51.60027 | 19 ft | 24 kts | 158° |
| 2026-05-05 02:32 | 25.27016 | 51.60095 | 18 ft | 24 kts | 158° |
| 2026-05-05 02:33 | 25.26867 | 51.60161 | 18 ft | 23 kts | 158° |
| 2026-05-05 02:33 | 25.26721 | 51.60224 | 18 ft | 22 kts | 158° |
| 2026-05-05 02:33 | 25.26583 | 51.60286 | 19 ft | 22 kts | 158° |
| 2026-05-05 02:33 | 25.26441 | 51.60348 | 19 ft | 22 kts | 158° |
| 2026-05-05 02:34 | 25.26297 | 51.60411 | 20 ft | 24 kts | 158° |
| 2026-05-05 02:34 | 25.26141 | 51.60481 | 20 ft | 24 kts | 158° |
| 2026-05-05 02:34 | 25.26050 | 51.60541 | 20 ft | 10 kts | 102° |
| 2026-05-05 02:34 | 25.26073 | 51.60632 | 19 ft | 15 kts | 67° |
| 2026-05-05 02:35 | 25.26106 | 51.60737 | 19 ft | 12 kts | 95° |
| 2026-05-05 02:35 | 25.26061 | 51.60814 | 19 ft | 12 kts | 128° |
| 2026-05-05 02:35 | 25.26034 | 51.60852 | 20 ft | 0 kts | 129° |